Time;durP1;ratioP1;P1;durP2;ratioP2;P2;SDS_P1;SDS_P2;PMS_P1;PMS_P2;Temp;Humidity;BMP_temperature;BMP_pressure;BME280_temperature;BME280_humidity;BME280_pressure;Samples;Min_cycle;Max_cycle;Signal;HPM_P1;HPM_P2
2023/02/11 00:01:24;;;;;;;38.05;28.80;;;;;;;;;;6142704;23;20043;-82
2023/02/11 00:03:52;;;;;;;37.25;30.27;;;;;;;;;;6163428;23;20028;-82
2023/02/11 00:06:19;;;;;;;38.30;32.30;;;;;;;;;;6157566;23;20024;-83
2023/02/11 00:08:49;;;;;;;48.50;33.20;;;;;;;;;;6155310;23;20353;-83
2023/02/11 00:11:20;;;;;;;43.92;31.85;;;;;;;;;;6157050;23;20013;-83
2023/02/11 00:13:49;;;;;;;36.78;30.23;;;;;;;;;;6130696;23;20360;-82
2023/02/11 00:16:18;;;;;;;39.10;31.95;;;;;;;;;;6182743;23;20009;-83
2023/02/11 00:18:45;;;;;;;41.20;32.72;;;;;;;;;;6156522;23;20017;-83
2023/02/11 00:21:14;;;;;;;49.50;30.70;;;;;;;;;;6154817;23;20021;-83
2023/02/11 00:23:47;;;;;;;43.75;29.35;;;;;;;;;;6165373;23;20013;-82
2023/02/11 00:26:18;;;;;;;37.03;31.15;;;;;;;;;;6131985;23;20028;-82
2023/02/11 00:28:46;;;;;;;45.42;30.42;;;;;;;;;;6131391;23;20507;-83
2023/02/11 00:31:24;;;;;;;47.67;33.42;;;;;;;;;;6182198;23;20020;-83
2023/02/11 00:33:51;;;;;;;43.83;30.95;;;;;;;;;;6130921;23;20017;-83
2023/02/11 00:36:21;;;;;;;43.45;31.95;;;;;;;;;;6164028;23;20013;-83
2023/02/11 00:38:50;;;;;;;49.75;31.65;;;;;;;;;;6133887;23;20020;-83
2023/02/11 00:41:20;;;;;;;44.88;31.27;;;;;;;;;;6134909;23;20024;-83
2023/02/11 00:43:47;;;;;;;42.63;32.97;;;;;;;;;;6132389;23;20224;-83
2023/02/11 00:46:15;;;;;;;44.88;33.03;;;;;;;;;;6185392;23;20020;-80
2023/02/11 00:48:43;;;;;;;43.30;30.90;;;;;;;;;;6153094;23;20021;-79
2023/02/11 00:51:11;;;;;;;44.78;29.88;;;;;;;;;;6187924;23;20018;-80
2023/02/11 00:53:38;;;;;;;53.03;33.00;;;;;;;;;;6152588;23;20021;-80
2023/02/11 00:56:06;;;;;;;41.03;32.75;;;;;;;;;;6129332;23;20014;-80
2023/02/11 00:58:34;;;;;;;46.53;34.28;;;;;;;;;;6152990;23;20492;-80
2023/02/11 01:01:04;;;;;;;45.30;33.28;;;;;;;;;;6153844;23;20016;-80
2023/02/11 01:03:31;;;;;;;63.33;39.97;;;;;;;;;;6151434;23;20025;-80
2023/02/11 01:06:00;;;;;;;51.85;35.92;;;;;;;;;;6162523;23;20020;-80
2023/02/11 01:08:27;;;;;;;54.65;36.38;;;;;;;;;;6152287;23;20013;-80
2023/02/11 01:10:56;;;;;;;49.97;35.92;;;;;;;;;;6154173;23;20013;-80
2023/02/11 01:13:26;;;;;;;56.70;35.80;;;;;;;;;;6152796;23;20377;-80
2023/02/11 01:15:55;;;;;;;43.47;33.00;;;;;;;;;;6128678;23;20018;-80
2023/02/11 01:18:23;;;;;;;46.45;37.05;;;;;;;;;;6127392;23;20365;-80
2023/02/11 01:20:51;;;;;;;47.80;35.25;;;;;;;;;;6128869;23;20024;-80
2023/02/11 01:23:19;;;;;;;51.05;34.03;;;;;;;;;;6127231;23;20025;-80
2023/02/11 01:25:47;;;;;;;49.55;32.95;;;;;;;;;;6127741;23;20014;-80
2023/02/11 01:28:16;;;;;;;42.72;31.52;;;;;;;;;;6152243;23;20014;-80
2023/02/11 01:30:44;;;;;;;39.42;29.90;;;;;;;;;;6155335;23;20009;-80
2023/02/11 01:33:13;;;;;;;49.13;34.42;;;;;;;;;;6128595;23;20025;-80
2023/02/11 01:35:41;;;;;;;50.40;34.30;;;;;;;;;;6150359;23;20023;-81
2023/02/11 01:38:15;;;;;;;42.20;31.38;;;;;;;;;;6155064;23;20013;-81
2023/02/11 01:40:52;;;;;;;52.17;36.47;;;;;;;;;;6162381;23;20020;-80
2023/02/11 01:43:23;;;;;;;46.05;31.25;;;;;;;;;;6162598;23;20050;-80
2023/02/11 01:46:24;;;;;;;39.58;29.67;;;;;;;;;;6151072;23;20013;-81
2023/02/11 01:48:54;;;;;;;46.97;32.05;;;;;;;;;;6151046;23;20024;-81
2023/02/11 01:51:24;;;;;;;43.25;31.30;;;;;;;;;;6151403;23;20044;-80
2023/02/11 01:59:30;;;;;;;42.78;32.17;;;;;;;;;;6127902;23;20021;-80
2023/02/11 02:02:02;;;;;;;41.35;31.70;;;;;;;;;;6162779;23;20017;-80
2023/02/11 02:04:33;;;;;;;46.35;31.65;;;;;;;;;;6162634;23;20021;-80
2023/02/11 02:07:06;;;;;;;39.85;31.27;;;;;;;;;;6158650;23;20010;-80
2023/02/11 02:09:41;;;;;;;40.15;33.65;;;;;;;;;;6163733;23;20014;-81
2023/02/11 02:12:09;;;;;;;44.17;32.83;;;;;;;;;;6150578;23;20015;-80
2023/02/11 02:14:38;;;;;;;45.63;34.33;;;;;;;;;;6152888;23;20013;-81
2023/02/11 02:17:06;;;;;;;48.25;38.38;;;;;;;;;;6152793;23;20014;-81
2023/02/11 02:20:11;;;;;;;51.90;35.50;;;;;;;;;;6127715;23;20499;-81
2023/02/11 02:23:23;;;;;;;42.20;32.05;;;;;;;;;;6160945;23;20044;-81
2023/02/11 02:26:24;;;;;;;44.25;33.33;;;;;;;;;;6084010;23;20021;-81
2023/02/11 02:29:27;;;;;;;47.67;36.33;;;;;;;;;;6151534;23;20013;-80
2023/02/11 02:32:23;;;;;;;44.35;33.42;;;;;;;;;;6141696;23;20028;-81
2023/02/11 02:34:51;;;;;;;;;;;;;;;;;;6164156;23;20013;-80
2023/02/11 02:37:21;;;;;;;40.45;30.23;;;;;;;;;;6151149;23;19927;-81
2023/02/11 02:39:50;;;;;;;45.67;28.80;;;;;;;;;;6152759;23;20028;-80
2023/02/11 02:42:18;;;;;;;43.03;31.73;;;;;;;;;;6161971;23;20021;-81
2023/02/11 02:44:48;;;;;;;47.60;34.15;;;;;;;;;;6152026;23;20013;-80
2023/02/11 02:47:19;;;;;;;42.95;31.38;;;;;;;;;;6126327;23;20018;-80
2023/02/11 02:49:46;;;;;;;43.75;32.42;;;;;;;;;;6150648;23;20477;-80
2023/02/11 02:52:29;;;;;;;40.25;31.27;;;;;;;;;;6150112;23;20028;-80
2023/02/11 02:55:08;;;;;;;43.22;32.35;;;;;;;;;;6127123;23;20017;-80
2023/02/11 02:57:47;;;;;;;39.63;30.92;;;;;;;;;;6150799;23;20022;-81
2023/02/11 03:00:23;;;;;;;45.53;35.05;;;;;;;;;;6160606;23;20453;-81
2023/02/11 03:03:01;;;;;;;41.70;31.98;;;;;;;;;;6160453;23;20353;-81
2023/02/11 03:05:35;;;;;;;43.80;32.75;;;;;;;;;;6161196;23;20017;-81
2023/02/11 03:08:07;;;;;;;39.95;31.15;;;;;;;;;;6155604;23;20020;-80
2023/02/11 03:10:36;;;;;;;42.00;31.67;;;;;;;;;;6126984;23;20021;-81
2023/02/11 03:13:06;;;;;;;44.25;29.75;;;;;;;;;;6163726;23;20020;-81
2023/02/11 03:15:38;;;;;;;43.20;32.25;;;;;;;;;;6161694;23;20018;-80
2023/02/11 03:18:08;;;;;;;46.05;31.92;;;;;;;;;;6151319;23;20457;-81
2023/02/11 03:20:36;;;;;;;38.22;31.55;;;;;;;;;;6150440;23;20036;-81
2023/02/11 03:23:08;;;;;;;42.88;29.13;;;;;;;;;;6126917;23;20021;-80
2023/02/11 03:25:41;;;;;;;37.38;29.48;;;;;;;;;;6162109;23;20482;-81
2023/02/11 03:28:14;;;;;;;41.33;29.48;;;;;;;;;;6154132;23;20476;-81
2023/02/11 03:30:44;;;;;;;45.03;31.93;;;;;;;;;;6162135;23;20013;-80
2023/02/11 03:33:18;;;;;;;39.78;29.05;;;;;;;;;;6125518;23;20022;-81
2023/02/11 03:35:50;;;;;;;46.40;32.30;;;;;;;;;;6127227;23;20021;-81
2023/02/11 03:38:20;;;;;;;46.35;31.77;;;;;;;;;;6154903;23;20017;-81
2023/02/11 03:40:50;;;;;;;42.42;31.90;;;;;;;;;;6161565;23;20013;-81
2023/02/11 03:43:21;;;;;;;43.35;31.55;;;;;;;;;;6152483;23;20036;-80
2023/02/11 03:45:51;;;;;;;34.60;30.02;;;;;;;;;;6160995;23;20064;-81
2023/02/11 03:48:25;;;;;;;48.17;33.58;;;;;;;;;;6152536;23;20029;-81
2023/02/11 03:50:54;;;;;;;46.13;34.97;;;;;;;;;;6162821;23;20020;-81
2023/02/11 03:53:24;;;;;;;42.05;31.88;;;;;;;;;;6127703;23;20025;-81
2023/02/11 03:55:52;;;;;;;41.78;31.63;;;;;;;;;;6126567;23;20018;-81
2023/02/11 03:58:19;;;;;;;40.58;33.30;;;;;;;;;;6151524;23;20014;-80
2023/02/11 04:00:46;;;;;;;40.75;31.05;;;;;;;;;;6161712;23;20014;-80
2023/02/11 04:03:13;;;;;;;49.58;33.13;;;;;;;;;;6151953;23;20354;-81
2023/02/11 04:05:44;;;;;;;49.28;30.02;;;;;;;;;;6126797;23;20020;-80
2023/02/11 04:08:12;;;;;;;40.47;30.25;;;;;;;;;;6151603;23;20025;-81
2023/02/11 04:10:39;;;;;;;43.75;29.95;;;;;;;;;;6152275;23;20354;-81
2023/02/11 04:13:06;;;;;;;41.58;33.90;;;;;;;;;;6151906;23;20021;-81
2023/02/11 04:15:33;;;;;;;41.55;32.38;;;;;;;;;;6161722;23;20021;-81
2023/02/11 04:18:02;;;;;;;44.75;28.70;;;;;;;;;;6152704;23;20024;-81
2023/02/11 04:20:29;;;;;;;41.38;29.58;;;;;;;;;;6151290;23;20017;-81
2023/02/11 04:22:57;;;;;;;47.13;30.80;;;;;;;;;;6150432;23;20017;-81
2023/02/11 04:25:26;;;;;;;46.42;33.13;;;;;;;;;;6153025;23;20014;-81
2023/02/11 04:27:53;;;;;;;48.85;34.95;;;;;;;;;;6176403;23;20017;-80
2023/02/11 04:30:20;;;;;;;40.22;30.70;;;;;;;;;;6151151;23;20018;-81
2023/02/11 04:32:47;;;;;;;40.08;29.55;;;;;;;;;;6151355;23;20365;-81
2023/02/11 04:35:17;;;;;;;40.47;30.70;;;;;;;;;;6150523;23;20029;-81
2023/02/11 04:37:44;;;;;;;41.15;29.98;;;;;;;;;;6151997;23;20020;-81
2023/02/11 04:40:13;;;;;;;41.47;28.90;;;;;;;;;;6151900;23;20017;-81
2023/02/11 04:42:42;;;;;;;40.08;31.35;;;;;;;;;;6152269;23;20022;-81
2023/02/11 04:45:10;;;;;;;44.15;28.30;;;;;;;;;;6151537;23;20021;-80
2023/02/11 04:47:39;;;;;;;38.25;28.45;;;;;;;;;;6155840;23;20017;-80
2023/02/11 04:50:11;;;;;;;36.55;29.95;;;;;;;;;;6160988;23;20029;-81
2023/02/11 04:52:38;;;;;;;42.33;29.92;;;;;;;;;;6164232;23;20021;-80
2023/02/11 04:55:06;;;;;;;39.60;29.40;;;;;;;;;;6170101;23;20014;-80
2023/02/11 04:57:35;;;;;;;39.83;29.95;;;;;;;;;;6155781;23;20033;-80
2023/02/11 05:00:05;;;;;;;35.05;29.27;;;;;;;;;;6150782;23;20028;-81
2023/02/11 05:02:32;;;;;;;36.85;28.45;;;;;;;;;;6160751;23;20020;-81
2023/02/11 05:04:59;;;;;;;37.75;25.65;;;;;;;;;;6125632;23;20075;-81
2023/02/11 05:07:27;;;;;;;37.97;27.73;;;;;;;;;;6149403;23;20014;-81
2023/02/11 05:09:54;;;;;;;41.42;26.67;;;;;;;;;;6152889;23;20021;-81
2023/02/11 05:12:21;;;;;;;39.92;29.20;;;;;;;;;;6151674;23;20509;-80
2023/02/11 05:14:50;;;;;;;42.78;28.35;;;;;;;;;;6171644;23;19998;-81
2023/02/11 05:17:17;;;;;;;41.80;29.42;;;;;;;;;;6152860;23;20018;-81
2023/02/11 05:19:44;;;;;;;35.15;27.27;;;;;;;;;;6151607;23;20028;-81
2023/02/11 05:22:17;;;;;;;37.55;28.95;;;;;;;;;;6150046;23;20013;-81
2023/02/11 05:24:46;;;;;;;36.53;25.63;;;;;;;;;;6152172;23;20021;-81
2023/02/11 05:27:16;;;;;;;35.90;25.17;;;;;;;;;;6153634;23;20357;-81
2023/02/11 05:29:43;;;;;;;40.88;26.98;;;;;;;;;;6152959;23;20469;-81
2023/02/11 05:32:16;;;;;;;39.90;29.67;;;;;;;;;;6153153;23;20025;-81
2023/02/11 05:34:44;;;;;;;38.40;27.40;;;;;;;;;;6155169;23;20018;-81
2023/02/11 05:37:11;;;;;;;33.65;24.48;;;;;;;;;;6149718;23;20504;-81
2023/02/11 05:39:40;;;;;;;41.83;27.15;;;;;;;;;;6152856;23;20017;-81
2023/02/11 05:42:08;;;;;;;35.63;27.23;;;;;;;;;;6127404;23;20018;-81
2023/02/11 05:44:37;;;;;;;41.28;28.13;;;;;;;;;;6152082;23;20309;-81
2023/02/11 05:47:07;;;;;;;42.60;32.70;;;;;;;;;;6151262;23;20021;-81
2023/02/11 05:49:38;;;;;;;33.90;27.42;;;;;;;;;;6165270;23;20017;-81
2023/02/11 05:52:05;;;;;;;40.63;27.02;;;;;;;;;;6128059;23;20026;-80
2023/02/11 05:54:34;;;;;;;37.25;28.40;;;;;;;;;;6152941;23;20026;-80
2023/02/11 05:57:02;;;;;;;43.65;29.13;;;;;;;;;;6127005;23;20025;-81
2023/02/11 05:59:29;;;;;;;41.47;27.83;;;;;;;;;;6152333;23;20024;-81
2023/02/11 06:01:56;;;;;;;39.30;30.00;;;;;;;;;;6152468;23;20041;-81
2023/02/11 06:04:23;;;;;;;37.53;27.80;;;;;;;;;;6152516;23;20017;-80
2023/02/11 06:06:54;;;;;;;41.13;27.10;;;;;;;;;;6161942;23;20021;-81
2023/02/11 06:09:22;;;;;;;40.15;31.83;;;;;;;;;;6127784;23;20024;-81
2023/02/11 06:11:49;;;;;;;38.30;29.13;;;;;;;;;;6163461;23;20017;-81
2023/02/11 06:14:18;;;;;;;36.78;28.98;;;;;;;;;;6151242;23;20036;-80
2023/02/11 06:16:45;;;;;;;35.90;27.25;;;;;;;;;;6127106;23;20453;-81
2023/02/11 06:19:13;;;;;;;40.15;29.55;;;;;;;;;;6151604;23;20017;-81
2023/02/11 06:21:40;;;;;;;39.80;28.60;;;;;;;;;;6164468;23;20013;-81
2023/02/11 06:24:09;;;;;;;41.72;29.70;;;;;;;;;;6151688;23;20335;-80
2023/02/11 06:26:36;;;;;;;38.08;29.35;;;;;;;;;;6162999;23;20018;-81
2023/02/11 06:29:03;;;;;;;46.05;32.17;;;;;;;;;;6153555;23;20017;-81
2023/02/11 06:31:30;;;;;;;34.75;27.80;;;;;;;;;;6154483;23;20465;-81
2023/02/11 06:34:00;;;;;;;36.08;28.00;;;;;;;;;;6127640;23;20027;-81
2023/02/11 06:36:30;;;;;;;38.53;29.30;;;;;;;;;;6152859;23;20025;-81
2023/02/11 06:38:57;;;;;;;36.00;25.33;;;;;;;;;;6161138;23;20024;-81
2023/02/11 06:41:26;;;;;;;32.63;24.38;;;;;;;;;;6151829;23;20022;-81
2023/02/11 06:43:58;;;;;;;47.67;28.13;;;;;;;;;;6126260;23;20357;-81
2023/02/11 06:46:25;;;;;;;39.53;25.63;;;;;;;;;;6149941;23;20025;-80
2023/02/11 06:54:33;;;;;;;34.28;24.15;;;;;;;;;;6181795;23;20013;-85
2023/02/11 06:57:02;;;;;;;31.08;21.80;;;;;;;;;;6182417;23;20536;-86
2023/02/11 06:59:29;;;;;;;34.22;25.75;;;;;;;;;;6132308;23;20021;-86
2023/02/11 07:01:56;;;;;;;43.53;27.00;;;;;;;;;;6157967;23;20031;-86
2023/02/11 07:04:24;;;;;;;36.60;24.13;;;;;;;;;;6131817;23;20020;-87
2023/02/11 07:06:54;;;;;;;38.10;22.40;;;;;;;;;;6157611;23;20036;-86
2023/02/11 08:19:28;;;;;;;41.90;25.10;;;;;;;;;;6179609;23;20356;-87
2023/02/11 08:22:04;;;;;;;40.80;25.70;;;;;;;;;;6181141;23;20021;-87
2023/02/11 08:24:32;;;;;;;39.30;24.60;;;;;;;;;;6182705;23;20014;-86
2023/02/11 08:26:59;;;;;;;37.63;26.83;;;;;;;;;;6180288;23;20017;-85
2023/02/11 08:29:26;;;;;;;30.83;22.05;;;;;;;;;;6182511;23;20425;-86
2023/02/11 08:31:54;;;;;;;37.72;25.33;;;;;;;;;;6153749;23;20025;-85
2023/02/11 08:34:22;;;;;;;34.38;23.73;;;;;;;;;;6153806;23;20025;-86
2023/02/11 08:36:50;;;;;;;31.92;21.65;;;;;;;;;;6153029;23;20349;-86
2023/02/11 08:39:22;;;;;;;31.15;23.67;;;;;;;;;;6155847;23;20032;-86
2023/02/11 08:41:52;;;;;;;30.17;20.30;;;;;;;;;;6182728;23;20017;-86
2023/02/11 08:44:20;;;;;;;35.92;22.60;;;;;;;;;;6156542;23;20017;-86
2023/02/11 08:46:50;;;;;;;32.38;24.38;;;;;;;;;;6156680;23;20028;-86
2023/02/11 08:49:17;;;;;;;36.05;25.88;;;;;;;;;;6182203;23;20013;-86
2023/02/11 08:51:46;;;;;;;27.33;19.90;;;;;;;;;;6180616;23;20336;-86
2023/02/11 08:54:14;;;;;;;34.03;24.95;;;;;;;;;;6181135;23;20020;-86
2023/02/11 08:56:42;;;;;;;26.80;20.83;;;;;;;;;;6189779;23;20020;-86
2023/02/11 08:59:16;;;;;;;31.27;23.70;;;;;;;;;;6156958;23;20021;-86
2023/02/11 09:01:45;;;;;;;35.95;22.70;;;;;;;;;;6192598;23;20013;-86
2023/02/11 09:04:13;;;;;;;28.25;20.50;;;;;;;;;;6157820;23;20020;-86
2023/02/11 09:06:40;;;;;;;28.63;22.70;;;;;;;;;;6191842;23;20020;-86
2023/02/11 09:09:10;;;;;;;31.02;19.83;;;;;;;;;;6183800;23;20013;-86
2023/02/11 09:11:39;;;;;;;27.73;20.38;;;;;;;;;;6167931;23;20009;-87
2023/02/11 09:14:07;;;;;;;35.72;24.83;;;;;;;;;;6132610;23;20031;-86
2023/02/11 09:16:35;;;;;;;27.90;20.98;;;;;;;;;;6156941;23;20024;-86
2023/02/11 09:19:04;;;;;;;29.27;20.27;;;;;;;;;;6182492;23;20452;-86
2023/02/11 09:21:34;;;;;;;33.08;25.27;;;;;;;;;;6132216;23;20024;-86
2023/02/11 09:24:01;;;;;;;34.95;23.65;;;;;;;;;;6181884;23;20013;-86
2023/02/11 09:26:31;;;;;;;36.17;23.55;;;;;;;;;;6183215;23;20024;-86
2023/02/11 09:29:01;;;;;;;29.10;21.75;;;;;;;;;;6183657;23;20013;-86
2023/02/11 09:31:32;;;;;;;38.47;24.65;;;;;;;;;;6156784;23;20040;-86
2023/02/11 09:34:04;;;;;;;30.52;21.90;;;;;;;;;;6191124;23;20625;-86
2023/02/11 09:36:36;;;;;;;35.78;24.30;;;;;;;;;;6155635;23;20024;-86
2023/02/11 09:39:05;;;;;;;33.05;22.52;;;;;;;;;;6181884;23;20013;-86
2023/02/11 09:41:47;;;;;;;30.13;21.50;;;;;;;;;;6156822;23;20357;-86
2023/02/11 09:44:19;;;;;;;28.95;22.67;;;;;;;;;;6155474;23;20017;-85
2023/02/11 09:46:55;;;;;;;26.70;22.05;;;;;;;;;;6131553;23;20024;-84
2023/02/11 09:49:27;;;;;;;32.92;20.83;;;;;;;;;;6153911;23;20013;-86
2023/02/11 09:51:58;;;;;;;27.23;19.38;;;;;;;;;;6192757;23;20013;-86
2023/02/11 09:54:29;;;;;;;27.85;21.45;;;;;;;;;;6166461;23;20009;-86
2023/02/11 09:56:57;;;;;;;25.08;21.35;;;;;;;;;;6165283;23;20353;-86
2023/02/11 09:59:25;;;;;;;29.02;21.10;;;;;;;;;;6183432;23;20016;-86
2023/02/11 10:01:55;;;;;;;27.85;19.80;;;;;;;;;;6156873;23;20225;-86
2023/02/11 10:04:38;;;;;;;22.65;18.10;;;;;;;;;;6132200;23;20064;-86
2023/02/11 10:07:11;;;;;;;22.50;16.90;;;;;;;;;;6190946;23;20020;-86
2023/02/11 10:09:51;;;;;;;21.77;17.35;;;;;;;;;;6193996;23;20016;-86
2023/02/11 10:12:32;;;;;;;27.75;20.33;;;;;;;;;;6180630;23;20021;-86
2023/02/11 10:15:08;;;;;;;27.20;19.65;;;;;;;;;;6157209;23;20020;-86
2023/02/11 10:17:39;;;;;;;23.42;17.90;;;;;;;;;;6189949;23;20013;-86
2023/02/11 10:20:17;;;;;;;28.10;17.73;;;;;;;;;;6183421;23;20019;-86
2023/02/11 10:22:48;;;;;;;29.35;19.48;;;;;;;;;;6166656;23;20016;-86
2023/02/11 10:25:22;;;;;;;24.52;18.50;;;;;;;;;;6158014;23;20016;-86
2023/02/11 10:27:57;;;;;;;24.65;16.75;;;;;;;;;;6130667;23;20426;-86
2023/02/11 10:30:29;;;;;;;24.60;18.27;;;;;;;;;;6132739;23;20473;-86
2023/02/11 10:33:00;;;;;;;24.40;18.58;;;;;;;;;;6166307;23;20009;-86
2023/02/11 10:35:28;;;;;;;29.85;17.85;;;;;;;;;;6133089;23;20349;-86
2023/02/11 10:37:55;;;;;;;25.98;18.23;;;;;;;;;;6182669;23;20009;-86
2023/02/11 10:40:26;;;;;;;26.25;18.20;;;;;;;;;;6156472;23;20017;-86
2023/02/11 10:42:57;;;;;;;22.88;17.00;;;;;;;;;;6131600;23;20322;-86
2023/02/11 10:45:30;;;;;;;28.77;17.90;;;;;;;;;;6133219;23;20024;-86
2023/02/11 10:48:00;;;;;;;26.02;18.08;;;;;;;;;;6154287;23;20230;-86
2023/02/11 10:50:33;;;;;;;24.58;17.58;;;;;;;;;;6183496;23;20032;-85
2023/02/11 10:53:18;;;;;;;31.90;18.90;;;;;;;;;;6155937;23;20361;-86
2023/02/11 10:55:54;;;;;;;28.25;19.73;;;;;;;;;;6155840;23;20028;-85
2023/02/11 10:58:29;;;;;;;22.48;18.73;;;;;;;;;;6158366;23;20028;-86
2023/02/11 11:00:57;;;;;;;23.35;19.23;;;;;;;;;;6191905;23;20013;-86
2023/02/11 11:03:25;;;;;;;25.70;16.92;;;;;;;;;;6131571;23;20021;-86
2023/02/11 11:05:56;;;;;;;26.85;19.13;;;;;;;;;;6166764;23;20341;-86
2023/02/11 11:08:38;;;;;;;31.67;21.00;;;;;;;;;;6131932;23;20032;-86
2023/02/11 11:11:07;;;;;;;25.10;18.33;;;;;;;;;;6191421;23;20013;-86
2023/02/11 11:13:42;;;;;;;22.25;18.80;;;;;;;;;;6157248;23;20040;-86
2023/02/11 11:16:25;;;;;;;29.65;19.05;;;;;;;;;;6155845;23;20024;-86
2023/02/11 11:18:54;;;;;;;20.65;16.50;;;;;;;;;;6149896;23;20024;-85
2023/02/11 11:21:23;;;;;;;23.13;15.90;;;;;;;;;;6191278;23;20017;-86
2023/02/11 11:23:54;;;;;;;23.08;16.58;;;;;;;;;;6155097;23;20021;-85
2023/02/11 11:26:21;;;;;;;26.40;19.05;;;;;;;;;;6130717;23;20027;-85
2023/02/11 11:28:59;;;;;;;27.50;17.33;;;;;;;;;;6181506;23;20013;-85
2023/02/11 11:31:30;;;;;;;22.17;18.20;;;;;;;;;;6130447;23;20017;-85
2023/02/11 11:33:59;;;;;;;26.95;17.40;;;;;;;;;;6191190;23;20035;-85
2023/02/11 11:36:33;;;;;;;26.25;17.75;;;;;;;;;;6156389;23;20341;-85
2023/02/11 11:39:11;;;;;;;22.55;15.75;;;;;;;;;;6184589;23;20467;-85
2023/02/11 11:41:49;;;;;;;22.42;16.45;;;;;;;;;;6183679;23;20017;-86
2023/02/11 11:44:24;;;;;;;21.75;15.57;;;;;;;;;;6193465;23;20035;-86
2023/02/11 11:47:27;;;;;;;25.80;16.35;;;;;;;;;;6142856;23;20031;-86
2023/02/11 11:50:19;;;;;;;19.77;15.05;;;;;;;;;;6173653;23;20017;-85
2023/02/11 11:52:49;;;;;;;20.63;17.13;;;;;;;;;;6130766;23;20357;-85
2023/02/11 11:55:21;;;;;;;22.50;16.33;;;;;;;;;;6181505;23;20080;-86
2023/02/11 11:57:50;;;;;;;23.35;16.00;;;;;;;;;;6179069;23;20056;-86
2023/02/11 12:00:26;;;;;;;21.30;14.93;;;;;;;;;;6153678;23;20013;-85
2023/02/11 12:03:05;;;;;;;25.17;16.77;;;;;;;;;;6163711;23;20013;-85
2023/02/11 12:05:36;;;;;;;24.63;16.13;;;;;;;;;;6130703;23;20017;-86
2023/02/11 12:08:11;;;;;;;23.95;16.48;;;;;;;;;;6185531;23;20024;-85
2023/02/11 12:10:54;;;;;;;27.27;16.88;;;;;;;;;;6130543;23;20017;-85
2023/02/11 12:13:32;;;;;;;22.45;17.48;;;;;;;;;;6153219;23;20040;-86
2023/02/11 12:16:08;;;;;;;20.48;16.73;;;;;;;;;;6191952;23;20013;-85
2023/02/11 12:18:52;;;;;;;20.23;15.45;;;;;;;;;;6185033;23;20013;-85
2023/02/11 12:21:32;;;;;;;23.15;16.02;;;;;;;;;;6165417;23;20017;-85
2023/02/11 12:24:21;;;;;;;22.38;17.70;;;;;;;;;;6190446;23;20397;-85
2023/02/11 12:26:56;;;;;;;22.75;16.40;;;;;;;;;;6191884;23;20025;-86
2023/02/11 12:29:32;;;;;;;21.55;15.75;;;;;;;;;;6155781;23;20017;-85
2023/02/11 12:32:14;;;;;;;23.00;15.23;;;;;;;;;;6153882;23;20084;-85
2023/02/11 12:34:51;;;;;;;23.02;16.35;;;;;;;;;;6152693;23;20356;-85
2023/02/11 12:37:28;;;;;;;23.25;15.50;;;;;;;;;;6188694;23;20417;-86
2023/02/11 12:40:04;;;;;;;21.40;16.42;;;;;;;;;;6194776;23;20009;-85
2023/02/11 12:45:37;;;;;;;20.83;16.13;;;;;;;;;;6193830;23;20013;-84
2023/02/11 12:51:09;;;;;;;17.65;15.13;;;;;;;;;;6154739;23;20017;-85
2023/02/11 12:53:56;;;;;;;24.58;14.45;;;;;;;;;;6149676;23;20349;-88
2023/02/11 12:56:31;;;;;;;19.77;15.25;;;;;;;;;;6162882;23;20024;-90
2023/02/11 12:59:01;;;;;;;23.10;16.23;;;;;;;;;;6151958;23;20018;-89
2023/02/11 13:01:31;;;;;;;22.25;15.00;;;;;;;;;;6153473;23;20025;-89
2023/02/11 13:04:04;;;;;;;25.48;17.27;;;;;;;;;;6153378;23;20021;-90
2023/02/11 13:06:34;;;;;;;;;;;;;;;;;;6166579;23;20010;-89
2023/02/11 13:09:04;;;;;;;22.92;15.40;;;;;;;;;;6129009;23;20253;-89
2023/02/11 13:11:36;;;;;;;21.80;14.93;;;;;;;;;;6153842;23;20013;-89
2023/02/11 13:14:06;;;;;;;25.35;16.35;;;;;;;;;;6128255;23;20021;-89
2023/02/11 13:16:39;;;;;;;23.33;18.00;;;;;;;;;;6163396;23;20024;-89
2023/02/11 13:42:16;;;;;;;16.10;13.63;;;;;;;;;;6155666;23;20450;-89
2023/02/11 13:44:45;;;;;;;16.17;13.25;;;;;;;;;;6166236;23;20014;-90
2023/02/11 13:47:25;;;;;;;21.88;15.48;;;;;;;;;;6179055;23;20461;-89
2023/02/11 13:49:53;;;;;;;24.60;15.98;;;;;;;;;;6130318;23;20021;-90
2023/02/11 13:52:24;;;;;;;17.33;13.98;;;;;;;;;;6165373;23;20091;-90
2023/02/11 13:54:52;;;;;;;24.33;14.00;;;;;;;;;;6166231;23;20025;-90
2023/02/11 13:57:27;;;;;;;24.63;16.02;;;;;;;;;;6153654;23;20378;-90
2023/02/11 13:59:55;;;;;;;22.40;16.58;;;;;;;;;;6156544;23;20021;-89
2023/02/11 14:11:07;;;;;;;19.15;14.85;;;;;;;;;;6158810;23;20018;-89
2023/02/11 14:13:36;;;;;;;23.67;14.82;;;;;;;;;;6167020;23;20017;-90
2023/02/11 14:16:06;;;;;;;22.50;17.23;;;;;;;;;;6157605;23;20028;-90
2023/02/11 14:18:51;;;;;;;17.60;14.40;;;;;;;;;;6157449;23;20013;-90
2023/02/11 14:21:20;;;;;;;22.95;14.30;;;;;;;;;;6153828;23;20021;-90
2023/02/11 14:23:48;;;;;;;21.70;14.95;;;;;;;;;;6157646;23;20018;-90
2023/02/11 14:26:33;;;;;;;20.55;13.73;;;;;;;;;;6155443;23;20020;-90
2023/02/11 14:29:07;;;;;;;22.52;14.30;;;;;;;;;;6129514;23;20504;-89
2023/02/11 14:31:42;;;;;;;20.05;14.52;;;;;;;;;;6168290;23;20020;-89
2023/02/11 14:34:30;;;;;;;20.50;15.93;;;;;;;;;;6131492;23;20043;-90
2023/02/11 14:37:11;;;;;;;22.23;14.50;;;;;;;;;;6165442;23;20357;-90
2023/02/11 14:39:51;;;;;;;22.70;16.25;;;;;;;;;;6165409;23;20021;-90
2023/02/11 14:42:21;;;;;;;22.98;16.35;;;;;;;;;;6130343;23;20029;-90
2023/02/11 14:44:53;;;;;;;23.33;14.02;;;;;;;;;;6165021;23;20022;-89
2023/02/11 14:47:24;;;;;;;19.33;15.25;;;;;;;;;;6153782;23;20024;-90
2023/02/11 14:49:53;;;;;;;20.48;15.65;;;;;;;;;;6154163;23;20354;-87
2023/02/11 14:52:26;;;;;;;22.13;15.05;;;;;;;;;;6151323;23;20024;-92
2023/02/11 14:55:01;;;;;;;21.48;15.30;;;;;;;;;;6167440;23;20017;-91
2023/02/11 14:57:29;;;;;;;20.25;14.90;;;;;;;;;;6130481;23;20503;-90
2023/02/11 15:00:01;;;;;;;22.35;15.23;;;;;;;;;;6154265;23;20021;-91
2023/02/11 15:02:30;;;;;;;23.95;16.95;;;;;;;;;;6152687;23;20017;-91
2023/02/11 15:05:14;;;;;;;26.73;15.27;;;;;;;;;;6146215;23;20021;-90
2023/02/11 15:07:44;;;;;;;21.75;16.48;;;;;;;;;;6181671;23;20018;-90
2023/02/11 15:10:18;;;;;;;18.85;13.60;;;;;;;;;;6175084;23;20021;-91
2023/02/11 15:12:49;;;;;;;27.42;17.23;;;;;;;;;;6156676;23;20450;-91
2023/02/11 15:15:17;;;;;;;20.35;15.52;;;;;;;;;;6151885;23;20022;-91
2023/02/11 15:17:45;;;;;;;23.48;15.77;;;;;;;;;;6127281;23;20017;-91
2023/02/11 15:20:21;;;;;;;22.63;15.38;;;;;;;;;;6152441;23;20013;-90
2023/02/11 15:22:52;;;;;;;25.02;16.48;;;;;;;;;;6159502;23;20014;-91
2023/02/11 15:25:21;;;;;;;23.88;15.30;;;;;;;;;;6151579;23;20017;-91
2023/02/11 15:27:50;;;;;;;23.70;16.85;;;;;;;;;;6152206;23;20021;-91
2023/02/11 15:30:27;;;;;;;22.45;16.13;;;;;;;;;;6126482;23;20021;-91
2023/02/11 15:32:58;;;;;;;23.65;17.50;;;;;;;;;;6151405;23;20026;-92
2023/02/11 17:13:40;;;;;;;24.23;17.73;;;;;;;;;;6159818;23;20039;-91
2023/02/11 17:16:17;;;;;;;22.55;17.17;;;;;;;;;;6133864;23;20017;-90
2023/02/11 17:21:35;;;;;;;22.23;18.63;;;;;;;;;;6135443;23;20017;-90
2023/02/11 17:24:06;;;;;;;20.15;16.15;;;;;;;;;;6140603;23;20021;-91
2023/02/11 17:26:39;;;;;;;31.92;20.17;;;;;;;;;;6146712;23;20093;-89
2023/02/11 17:29:11;;;;;;;32.38;19.35;;;;;;;;;;6126342;23;20017;-91
2023/02/11 17:31:45;;;;;;;23.10;17.75;;;;;;;;;;6155775;23;20004;-89
2023/02/11 17:34:13;;;;;;;31.02;18.33;;;;;;;;;;6150642;23;20486;-90
2023/02/11 17:36:44;;;;;;;26.67;19.08;;;;;;;;;;6138762;23;20025;-89
2023/02/11 17:39:19;;;;;;;25.58;20.17;;;;;;;;;;6138185;23;20031;-89
2023/02/11 17:41:49;;;;;;;33.70;23.42;;;;;;;;;;6185948;23;20028;-89
2023/02/11 17:44:17;;;;;;;60.20;34.58;;;;;;;;;;6135019;23;20039;-91
2023/02/11 17:46:45;;;;;;;34.63;23.63;;;;;;;;;;6134195;23;20017;-89
2023/02/11 17:51:57;;;;;;;23.90;17.52;;;;;;;;;;6132929;23;20025;-89
2023/02/11 17:54:30;;;;;;;25.15;19.95;;;;;;;;;;6110377;23;20160;-90
2023/02/11 17:56:59;;;;;;;23.88;19.50;;;;;;;;;;6134071;23;20036;-89
2023/02/11 17:59:34;;;;;;;24.90;19.08;;;;;;;;;;6133424;23;20020;-89
2023/02/11 18:07:38;;;;;;;26.40;18.45;;;;;;;;;;6132638;23;20676;-92
2023/02/11 18:13:32;;;;;;;22.77;17.75;;;;;;;;;;6130850;23;20025;-90
2023/02/11 18:40:54;;;;;;;26.20;17.80;;;;;;;;;;6132336;23;20472;-90
2023/02/11 18:48:54;;;;;;;28.67;21.30;;;;;;;;;;6106643;23;20496;-83
2023/02/11 18:51:21;;;;;;;29.90;19.80;;;;;;;;;;6114317;23;20029;-83
2023/02/11 18:53:48;;;;;;;26.02;17.40;;;;;;;;;;6114112;23;20017;-83
2023/02/11 18:56:19;;;;;;;24.38;18.40;;;;;;;;;;6114497;23;20018;-83
2023/02/11 18:58:46;;;;;;;29.33;19.27;;;;;;;;;;6117519;23;20454;-84
2023/02/11 19:01:16;;;;;;;23.13;17.15;;;;;;;;;;6115661;23;20083;-84
2023/02/11 19:03:44;;;;;;;25.77;20.20;;;;;;;;;;6089590;23;20482;-83
2023/02/11 19:06:16;;;;;;;27.83;20.20;;;;;;;;;;6115506;23;20044;-83